sensor_id;sensor_type;location;lat;lon;timestamp;P1;durP1;ratioP1;P2;durP2;ratioP2
19854;SDS011;10088;47.946;2.532;2024-03-07T00:00:06;25.70;;;15.90;;
19854;SDS011;10088;47.946;2.532;2024-03-07T00:02:39;21.30;;;12.57;;
19854;SDS011;10088;47.946;2.532;2024-03-07T00:05:05;22.83;;;13.10;;
19854;SDS011;10088;47.946;2.532;2024-03-07T00:07:30;31.77;;;16.73;;
19854;SDS011;10088;47.946;2.532;2024-03-07T00:09:55;15.53;;;9.37;;
19854;SDS011;10088;47.946;2.532;2024-03-07T00:12:21;13.67;;;8.70;;
19854;SDS011;10088;47.946;2.532;2024-03-07T00:14:47;12.30;;;6.50;;
19854;SDS011;10088;47.946;2.532;2024-03-07T00:17:14;19.07;;;8.20;;
19854;SDS011;10088;47.946;2.532;2024-03-07T00:19:39;12.37;;;6.43;;
19854;SDS011;10088;47.946;2.532;2024-03-07T00:22:04;10.20;;;6.87;;
19854;SDS011;10088;47.946;2.532;2024-03-07T00:24:30;10.17;;;6.30;;
19854;SDS011;10088;47.946;2.532;2024-03-07T00:26:56;9.40;;;5.93;;
19854;SDS011;10088;47.946;2.532;2024-03-07T00:29:22;13.23;;;6.07;;
19854;SDS011;10088;47.946;2.532;2024-03-07T00:31:49;12.30;;;6.87;;
19854;SDS011;10088;47.946;2.532;2024-03-07T00:34:14;17.87;;;9.97;;
19854;SDS011;10088;47.946;2.532;2024-03-07T00:36:41;12.43;;;6.10;;
19854;SDS011;10088;47.946;2.532;2024-03-07T00:39:07;13.13;;;7.77;;
19854;SDS011;10088;47.946;2.532;2024-03-07T00:41:37;14.80;;;6.17;;
19854;SDS011;10088;47.946;2.532;2024-03-07T00:44:03;10.73;;;6.40;;
19854;SDS011;10088;47.946;2.532;2024-03-07T00:46:28;8.00;;;5.63;;
19854;SDS011;10088;47.946;2.532;2024-03-07T00:48:54;6.43;;;4.90;;
19854;SDS011;10088;47.946;2.532;2024-03-07T00:51:19;12.47;;;6.57;;
19854;SDS011;10088;47.946;2.532;2024-03-07T00:53:45;18.63;;;10.37;;
19854;SDS011;10088;47.946;2.532;2024-03-07T00:56:12;16.10;;;7.80;;
19854;SDS011;10088;47.946;2.532;2024-03-07T00:58:37;11.17;;;8.10;;
19854;SDS011;10088;47.946;2.532;2024-03-07T01:01:02;14.87;;;8.50;;
19854;SDS011;10088;47.946;2.532;2024-03-07T01:03:28;12.87;;;7.00;;
19854;SDS011;10088;47.946;2.532;2024-03-07T01:05:53;15.23;;;6.97;;
19854;SDS011;10088;47.946;2.532;2024-03-07T01:08:19;31.37;;;18.40;;
19854;SDS011;10088;47.946;2.532;2024-03-07T01:10:44;20.37;;;13.07;;
19854;SDS011;10088;47.946;2.532;2024-03-07T01:13:09;16.77;;;8.57;;
19854;SDS011;10088;47.946;2.532;2024-03-07T01:15:44;14.20;;;8.80;;
19854;SDS011;10088;47.946;2.532;2024-03-07T01:18:09;13.43;;;7.73;;
19854;SDS011;10088;47.946;2.532;2024-03-07T01:20:34;8.33;;;6.37;;
19854;SDS011;10088;47.946;2.532;2024-03-07T01:23:00;9.50;;;6.30;;
19854;SDS011;10088;47.946;2.532;2024-03-07T01:25:25;8.80;;;5.60;;
19854;SDS011;10088;47.946;2.532;2024-03-07T01:27:52;13.37;;;6.00;;
19854;SDS011;10088;47.946;2.532;2024-03-07T01:30:17;13.20;;;5.97;;
19854;SDS011;10088;47.946;2.532;2024-03-07T01:32:43;12.00;;;6.37;;
19854;SDS011;10088;47.946;2.532;2024-03-07T01:35:08;25.97;;;10.87;;
19854;SDS011;10088;47.946;2.532;2024-03-07T01:37:33;55.30;;;26.20;;
19854;SDS011;10088;47.946;2.532;2024-03-07T01:39:59;33.17;;;16.07;;
19854;SDS011;10088;47.946;2.532;2024-03-07T01:42:24;23.07;;;14.80;;
19854;SDS011;10088;47.946;2.532;2024-03-07T01:44:50;23.50;;;13.70;;
19854;SDS011;10088;47.946;2.532;2024-03-07T01:47:16;22.97;;;12.50;;
19854;SDS011;10088;47.946;2.532;2024-03-07T01:49:42;21.73;;;13.47;;
19854;SDS011;10088;47.946;2.532;2024-03-07T01:52:08;19.00;;;11.37;;
19854;SDS011;10088;47.946;2.532;2024-03-07T01:54:34;13.57;;;8.77;;
19854;SDS011;10088;47.946;2.532;2024-03-07T01:57:00;15.13;;;9.27;;
19854;SDS011;10088;47.946;2.532;2024-03-07T01:59:26;15.93;;;9.47;;
19854;SDS011;10088;47.946;2.532;2024-03-07T02:01:54;16.80;;;8.03;;
19854;SDS011;10088;47.946;2.532;2024-03-07T02:04:19;11.40;;;5.80;;
19854;SDS011;10088;47.946;2.532;2024-03-07T02:06:45;7.30;;;5.63;;
19854;SDS011;10088;47.946;2.532;2024-03-07T02:09:10;7.47;;;5.53;;
19854;SDS011;10088;47.946;2.532;2024-03-07T02:11:35;11.77;;;6.37;;
19854;SDS011;10088;47.946;2.532;2024-03-07T02:14:00;10.50;;;4.53;;
19854;SDS011;10088;47.946;2.532;2024-03-07T02:16:26;7.80;;;5.30;;
19854;SDS011;10088;47.946;2.532;2024-03-07T02:18:51;13.00;;;5.53;;
19854;SDS011;10088;47.946;2.532;2024-03-07T02:21:17;6.67;;;4.70;;
19854;SDS011;10088;47.946;2.532;2024-03-07T02:23:42;12.13;;;8.00;;
19854;SDS011;10088;47.946;2.532;2024-03-07T02:26:08;19.93;;;11.83;;
19854;SDS011;10088;47.946;2.532;2024-03-07T02:28:34;10.17;;;6.67;;
19854;SDS011;10088;47.946;2.532;2024-03-07T02:30:59;9.10;;;5.97;;
19854;SDS011;10088;47.946;2.532;2024-03-07T02:33:25;9.93;;;6.83;;
19854;SDS011;10088;47.946;2.532;2024-03-07T02:35:50;19.10;;;12.50;;
19854;SDS011;10088;47.946;2.532;2024-03-07T02:38:15;34.90;;;16.43;;
19854;SDS011;10088;47.946;2.532;2024-03-07T02:40:42;12.63;;;7.50;;
19854;SDS011;10088;47.946;2.532;2024-03-07T02:43:08;10.40;;;5.33;;
19854;SDS011;10088;47.946;2.532;2024-03-07T02:45:33;7.93;;;4.77;;
19854;SDS011;10088;47.946;2.532;2024-03-07T02:47:58;8.13;;;5.10;;
19854;SDS011;10088;47.946;2.532;2024-03-07T02:50:23;12.17;;;6.97;;
19854;SDS011;10088;47.946;2.532;2024-03-07T02:52:49;8.70;;;5.03;;
19854;SDS011;10088;47.946;2.532;2024-03-07T02:55:15;9.73;;;5.63;;
19854;SDS011;10088;47.946;2.532;2024-03-07T02:57:41;10.43;;;7.00;;
19854;SDS011;10088;47.946;2.532;2024-03-07T03:00:06;14.83;;;6.67;;
19854;SDS011;10088;47.946;2.532;2024-03-07T03:02:44;13.70;;;5.80;;
19854;SDS011;10088;47.946;2.532;2024-03-07T03:05:10;26.43;;;8.73;;
19854;SDS011;10088;47.946;2.532;2024-03-07T03:07:35;17.93;;;6.50;;
19854;SDS011;10088;47.946;2.532;2024-03-07T03:10:01;14.43;;;7.00;;
19854;SDS011;10088;47.946;2.532;2024-03-07T03:12:26;15.97;;;8.00;;
19854;SDS011;10088;47.946;2.532;2024-03-07T03:14:51;13.50;;;6.97;;
19854;SDS011;10088;47.946;2.532;2024-03-07T03:17:18;90.00;;;30.87;;
19854;SDS011;10088;47.946;2.532;2024-03-07T03:19:43;118.83;;;41.27;;
19854;SDS011;10088;47.946;2.532;2024-03-07T03:22:09;63.60;;;26.20;;
19854;SDS011;10088;47.946;2.532;2024-03-07T03:24:34;34.67;;;15.60;;
19854;SDS011;10088;47.946;2.532;2024-03-07T03:27:00;32.40;;;15.73;;
19854;SDS011;10088;47.946;2.532;2024-03-07T03:29:26;30.23;;;13.90;;
19854;SDS011;10088;47.946;2.532;2024-03-07T03:31:54;30.57;;;13.47;;
19854;SDS011;10088;47.946;2.532;2024-03-07T03:34:19;33.80;;;14.43;;
19854;SDS011;10088;47.946;2.532;2024-03-07T03:36:46;46.33;;;19.53;;
19854;SDS011;10088;47.946;2.532;2024-03-07T03:39:11;32.67;;;15.67;;
19854;SDS011;10088;47.946;2.532;2024-03-07T03:41:38;60.57;;;14.10;;
19854;SDS011;10088;47.946;2.532;2024-03-07T03:44:03;28.60;;;12.13;;
19854;SDS011;10088;47.946;2.532;2024-03-07T03:46:28;38.43;;;11.50;;
19854;SDS011;10088;47.946;2.532;2024-03-07T03:48:54;37.33;;;12.33;;
19854;SDS011;10088;47.946;2.532;2024-03-07T03:51:19;60.33;;;12.53;;
19854;SDS011;10088;47.946;2.532;2024-03-07T03:53:47;148.63;;;47.33;;
19854;SDS011;10088;47.946;2.532;2024-03-07T03:56:12;159.63;;;55.43;;
19854;SDS011;10088;47.946;2.532;2024-03-07T03:58:39;53.27;;;16.70;;
19854;SDS011;10088;47.946;2.532;2024-03-07T04:01:04;39.60;;;17.30;;
19854;SDS011;10088;47.946;2.532;2024-03-07T04:03:33;53.97;;;23.77;;
19854;SDS011;10088;47.946;2.532;2024-03-07T04:05:58;83.47;;;32.70;;
19854;SDS011;10088;47.946;2.532;2024-03-07T04:08:24;43.30;;;17.40;;
19854;SDS011;10088;47.946;2.532;2024-03-07T04:10:49;47.97;;;17.97;;
19854;SDS011;10088;47.946;2.532;2024-03-07T04:13:14;52.77;;;18.40;;
19854;SDS011;10088;47.946;2.532;2024-03-07T04:15:39;52.90;;;14.70;;
19854;SDS011;10088;47.946;2.532;2024-03-07T04:18:05;60.00;;;15.30;;
19854;SDS011;10088;47.946;2.532;2024-03-07T04:20:30;33.97;;;13.60;;
19854;SDS011;10088;47.946;2.532;2024-03-07T04:22:55;23.17;;;9.87;;
19854;SDS011;10088;47.946;2.532;2024-03-07T04:25:20;29.67;;;12.87;;
19854;SDS011;10088;47.946;2.532;2024-03-07T04:27:46;32.03;;;10.87;;
19854;SDS011;10088;47.946;2.532;2024-03-07T04:30:11;15.90;;;9.23;;
19854;SDS011;10088;47.946;2.532;2024-03-07T04:32:37;16.33;;;9.60;;
19854;SDS011;10088;47.946;2.532;2024-03-07T04:35:03;13.13;;;8.53;;
19854;SDS011;10088;47.946;2.532;2024-03-07T04:37:32;17.03;;;8.97;;
19854;SDS011;10088;47.946;2.532;2024-03-07T04:39:59;19.03;;;10.07;;
19854;SDS011;10088;47.946;2.532;2024-03-07T04:42:25;14.97;;;8.17;;
19854;SDS011;10088;47.946;2.532;2024-03-07T04:44:51;17.03;;;7.27;;
19854;SDS011;10088;47.946;2.532;2024-03-07T04:47:17;22.83;;;8.33;;
19854;SDS011;10088;47.946;2.532;2024-03-07T04:49:42;21.93;;;8.23;;
19854;SDS011;10088;47.946;2.532;2024-03-07T04:52:08;28.60;;;8.60;;
19854;SDS011;10088;47.946;2.532;2024-03-07T04:54:34;21.47;;;7.63;;
19854;SDS011;10088;47.946;2.532;2024-03-07T04:56:59;10.43;;;7.13;;
19854;SDS011;10088;47.946;2.532;2024-03-07T04:59:24;12.17;;;6.73;;
19854;SDS011;10088;47.946;2.532;2024-03-07T05:01:50;12.17;;;7.07;;
19854;SDS011;10088;47.946;2.532;2024-03-07T05:04:16;13.17;;;7.27;;
19854;SDS011;10088;47.946;2.532;2024-03-07T05:06:41;10.73;;;7.07;;
19854;SDS011;10088;47.946;2.532;2024-03-07T05:09:08;18.33;;;8.47;;
19854;SDS011;10088;47.946;2.532;2024-03-07T05:11:35;10.97;;;6.37;;
19854;SDS011;10088;47.946;2.532;2024-03-07T05:14:00;11.20;;;6.27;;
19854;SDS011;10088;47.946;2.532;2024-03-07T05:16:29;13.77;;;7.23;;
19854;SDS011;10088;47.946;2.532;2024-03-07T05:18:55;9.33;;;5.97;;
19854;SDS011;10088;47.946;2.532;2024-03-07T05:21:24;11.93;;;6.67;;
19854;SDS011;10088;47.946;2.532;2024-03-07T05:24:02;19.37;;;7.17;;
19854;SDS011;10088;47.946;2.532;2024-03-07T05:26:28;23.20;;;13.47;;
19854;SDS011;10088;47.946;2.532;2024-03-07T05:28:58;39.17;;;15.63;;
19854;SDS011;10088;47.946;2.532;2024-03-07T05:31:24;23.50;;;10.17;;
19854;SDS011;10088;47.946;2.532;2024-03-07T05:33:49;11.47;;;7.07;;
19854;SDS011;10088;47.946;2.532;2024-03-07T05:36:15;12.33;;;8.23;;
19854;SDS011;10088;47.946;2.532;2024-03-07T05:38:43;10.33;;;5.30;;
19854;SDS011;10088;47.946;2.532;2024-03-07T05:41:12;10.77;;;6.47;;
19854;SDS011;10088;47.946;2.532;2024-03-07T05:43:38;13.90;;;7.80;;
19854;SDS011;10088;47.946;2.532;2024-03-07T05:46:03;13.07;;;8.03;;
19854;SDS011;10088;47.946;2.532;2024-03-07T05:48:30;26.93;;;13.53;;
19854;SDS011;10088;47.946;2.532;2024-03-07T05:50:55;16.43;;;9.67;;
19854;SDS011;10088;47.946;2.532;2024-03-07T05:53:21;16.97;;;8.80;;
19854;SDS011;10088;47.946;2.532;2024-03-07T05:55:46;23.37;;;10.53;;
19854;SDS011;10088;47.946;2.532;2024-03-07T05:58:12;32.47;;;9.80;;
19854;SDS011;10088;47.946;2.532;2024-03-07T06:00:38;22.33;;;11.30;;
19854;SDS011;10088;47.946;2.532;2024-03-07T06:03:05;18.40;;;7.63;;
19854;SDS011;10088;47.946;2.532;2024-03-07T06:05:30;70.67;;;23.50;;
19854;SDS011;10088;47.946;2.532;2024-03-07T06:07:55;64.57;;;22.30;;
19854;SDS011;10088;47.946;2.532;2024-03-07T06:10:21;80.20;;;26.63;;
19854;SDS011;10088;47.946;2.532;2024-03-07T06:12:50;49.27;;;21.47;;
19854;SDS011;10088;47.946;2.532;2024-03-07T06:15:15;51.73;;;16.57;;
19854;SDS011;10088;47.946;2.532;2024-03-07T06:17:40;78.47;;;19.23;;
19854;SDS011;10088;47.946;2.532;2024-03-07T06:20:06;19.87;;;9.87;;
19854;SDS011;10088;47.946;2.532;2024-03-07T06:22:45;15.37;;;7.57;;
19854;SDS011;10088;47.946;2.532;2024-03-07T06:25:11;15.20;;;8.47;;
19854;SDS011;10088;47.946;2.532;2024-03-07T06:27:44;20.27;;;8.50;;
19854;SDS011;10088;47.946;2.532;2024-03-07T06:30:13;22.10;;;9.73;;
19854;SDS011;10088;47.946;2.532;2024-03-07T06:32:41;28.47;;;9.47;;
19854;SDS011;10088;47.946;2.532;2024-03-07T06:35:06;21.00;;;9.93;;
19854;SDS011;10088;47.946;2.532;2024-03-07T06:37:32;27.73;;;11.50;;
19854;SDS011;10088;47.946;2.532;2024-03-07T06:39:57;13.57;;;8.67;;
19854;SDS011;10088;47.946;2.532;2024-03-07T06:42:22;12.30;;;7.20;;
19854;SDS011;10088;47.946;2.532;2024-03-07T06:44:47;19.67;;;7.73;;
19854;SDS011;10088;47.946;2.532;2024-03-07T06:47:13;9.37;;;6.40;;
19854;SDS011;10088;47.946;2.532;2024-03-07T06:49:38;11.67;;;7.40;;
19854;SDS011;10088;47.946;2.532;2024-03-07T06:52:05;10.40;;;6.97;;
19854;SDS011;10088;47.946;2.532;2024-03-07T06:54:31;8.93;;;6.20;;
19854;SDS011;10088;47.946;2.532;2024-03-07T06:56:56;9.60;;;6.27;;
19854;SDS011;10088;47.946;2.532;2024-03-07T06:59:22;8.83;;;6.47;;
19854;SDS011;10088;47.946;2.532;2024-03-07T07:01:47;8.07;;;6.27;;
19854;SDS011;10088;47.946;2.532;2024-03-07T07:04:12;10.43;;;6.97;;
19854;SDS011;10088;47.946;2.532;2024-03-07T07:06:40;15.03;;;6.77;;
19854;SDS011;10088;47.946;2.532;2024-03-07T07:09:08;19.17;;;7.33;;
19854;SDS011;10088;47.946;2.532;2024-03-07T07:11:33;12.20;;;7.07;;
19854;SDS011;10088;47.946;2.532;2024-03-07T07:14:00;12.77;;;8.27;;
19854;SDS011;10088;47.946;2.532;2024-03-07T07:16:27;12.13;;;6.73;;
19854;SDS011;10088;47.946;2.532;2024-03-07T07:18:54;16.20;;;7.17;;
19854;SDS011;10088;47.946;2.532;2024-03-07T07:21:20;10.90;;;6.50;;
19854;SDS011;10088;47.946;2.532;2024-03-07T07:23:46;11.40;;;7.00;;
19854;SDS011;10088;47.946;2.532;2024-03-07T07:26:11;12.70;;;8.03;;
19854;SDS011;10088;47.946;2.532;2024-03-07T07:28:37;12.17;;;7.63;;
19854;SDS011;10088;47.946;2.532;2024-03-07T07:31:02;12.43;;;7.83;;
19854;SDS011;10088;47.946;2.532;2024-03-07T07:33:28;12.10;;;8.40;;
19854;SDS011;10088;47.946;2.532;2024-03-07T07:35:53;16.17;;;9.27;;
19854;SDS011;10088;47.946;2.532;2024-03-07T07:38:18;15.00;;;9.83;;
19854;SDS011;10088;47.946;2.532;2024-03-07T07:40:43;14.23;;;8.23;;
19854;SDS011;10088;47.946;2.532;2024-03-07T07:43:09;13.67;;;8.27;;
19854;SDS011;10088;47.946;2.532;2024-03-07T07:45:38;17.67;;;10.43;;
19854;SDS011;10088;47.946;2.532;2024-03-07T07:48:04;17.03;;;9.30;;
19854;SDS011;10088;47.946;2.532;2024-03-07T07:50:29;17.17;;;9.33;;
19854;SDS011;10088;47.946;2.532;2024-03-07T07:52:56;16.67;;;10.53;;
19854;SDS011;10088;47.946;2.532;2024-03-07T07:55:29;18.27;;;9.73;;
19854;SDS011;10088;47.946;2.532;2024-03-07T07:57:57;28.93;;;10.57;;
19854;SDS011;10088;47.946;2.532;2024-03-07T08:00:24;193.87;;;21.53;;
19854;SDS011;10088;47.946;2.532;2024-03-07T08:05:28;793.70;;;57.93;;
19854;SDS011;10088;47.946;2.532;2024-03-07T08:07:57;160.43;;;15.33;;
19854;SDS011;10088;47.946;2.532;2024-03-07T08:10:26;344.10;;;24.53;;
19854;SDS011;10088;47.946;2.532;2024-03-07T08:12:53;18.40;;;7.17;;
19854;SDS011;10088;47.946;2.532;2024-03-07T08:15:18;132.93;;;13.23;;
19854;SDS011;10088;47.946;2.532;2024-03-07T08:17:44;13.50;;;6.40;;
19854;SDS011;10088;47.946;2.532;2024-03-07T08:20:11;26.37;;;7.63;;
19854;SDS011;10088;47.946;2.532;2024-03-07T08:22:37;8.43;;;5.87;;
19854;SDS011;10088;47.946;2.532;2024-03-07T08:25:02;12.63;;;6.53;;
19854;SDS011;10088;47.946;2.532;2024-03-07T08:27:34;8.03;;;5.87;;
19854;SDS011;10088;47.946;2.532;2024-03-07T08:29:59;10.13;;;6.60;;
19854;SDS011;10088;47.946;2.532;2024-03-07T08:32:24;8.00;;;5.97;;
19854;SDS011;10088;47.946;2.532;2024-03-07T08:34:51;9.07;;;6.03;;
19854;SDS011;10088;47.946;2.532;2024-03-07T08:37:16;7.17;;;4.90;;
19854;SDS011;10088;47.946;2.532;2024-03-07T08:39:41;7.80;;;5.60;;
19854;SDS011;10088;47.946;2.532;2024-03-07T08:42:06;7.63;;;5.70;;
19854;SDS011;10088;47.946;2.532;2024-03-07T08:44:32;10.47;;;6.00;;
19854;SDS011;10088;47.946;2.532;2024-03-07T08:46:57;8.87;;;4.87;;
19854;SDS011;10088;47.946;2.532;2024-03-07T08:49:22;6.70;;;5.00;;
19854;SDS011;10088;47.946;2.532;2024-03-07T08:51:48;7.17;;;5.00;;
19854;SDS011;10088;47.946;2.532;2024-03-07T08:54:14;6.10;;;4.80;;
19854;SDS011;10088;47.946;2.532;2024-03-07T08:56:39;5.60;;;4.33;;
19854;SDS011;10088;47.946;2.532;2024-03-07T08:59:04;8.37;;;4.30;;
19854;SDS011;10088;47.946;2.532;2024-03-07T09:01:29;4.77;;;3.73;;
19854;SDS011;10088;47.946;2.532;2024-03-07T09:03:55;6.20;;;4.23;;
19854;SDS011;10088;47.946;2.532;2024-03-07T09:06:22;5.27;;;4.03;;
19854;SDS011;10088;47.946;2.532;2024-03-07T09:08:48;6.67;;;4.00;;
19854;SDS011;10088;47.946;2.532;2024-03-07T09:11:13;7.27;;;4.37;;
19854;SDS011;10088;47.946;2.532;2024-03-07T09:13:38;5.23;;;3.97;;
19854;SDS011;10088;47.946;2.532;2024-03-07T09:16:05;6.83;;;4.30;;
19854;SDS011;10088;47.946;2.532;2024-03-07T09:18:30;7.13;;;4.03;;
19854;SDS011;10088;47.946;2.532;2024-03-07T09:20:56;5.77;;;4.57;;
19854;SDS011;10088;47.946;2.532;2024-03-07T09:23:21;6.43;;;4.10;;
19854;SDS011;10088;47.946;2.532;2024-03-07T09:25:46;7.23;;;3.70;;
19854;SDS011;10088;47.946;2.532;2024-03-07T09:28:12;4.53;;;3.47;;
19854;SDS011;10088;47.946;2.532;2024-03-07T09:30:37;7.43;;;3.30;;
19854;SDS011;10088;47.946;2.532;2024-03-07T09:33:04;3.37;;;2.70;;
19854;SDS011;10088;47.946;2.532;2024-03-07T09:35:29;5.50;;;3.17;;
19854;SDS011;10088;47.946;2.532;2024-03-07T09:37:55;3.40;;;2.60;;
19854;SDS011;10088;47.946;2.532;2024-03-07T09:40:21;5.37;;;2.83;;
19854;SDS011;10088;47.946;2.532;2024-03-07T09:42:49;5.43;;;3.20;;
19854;SDS011;10088;47.946;2.532;2024-03-07T09:45:18;3.80;;;2.93;;
19854;SDS011;10088;47.946;2.532;2024-03-07T09:47:47;3.57;;;2.63;;
19854;SDS011;10088;47.946;2.532;2024-03-07T09:50:14;5.50;;;2.90;;
19854;SDS011;10088;47.946;2.532;2024-03-07T09:52:40;3.17;;;2.80;;
19854;SDS011;10088;47.946;2.532;2024-03-07T09:55:06;5.73;;;2.87;;
19854;SDS011;10088;47.946;2.532;2024-03-07T09:57:33;4.80;;;2.97;;
19854;SDS011;10088;47.946;2.532;2024-03-07T09:59:59;5.73;;;2.90;;
19854;SDS011;10088;47.946;2.532;2024-03-07T10:02:27;4.30;;;3.10;;
19854;SDS011;10088;47.946;2.532;2024-03-07T10:04:53;4.00;;;2.93;;
19854;SDS011;10088;47.946;2.532;2024-03-07T10:07:18;5.53;;;3.23;;
19854;SDS011;10088;47.946;2.532;2024-03-07T10:09:44;5.40;;;3.70;;
19854;SDS011;10088;47.946;2.532;2024-03-07T10:12:09;6.33;;;3.40;;
19854;SDS011;10088;47.946;2.532;2024-03-07T10:14:37;6.90;;;3.90;;
19854;SDS011;10088;47.946;2.532;2024-03-07T10:17:03;5.17;;;3.37;;
19854;SDS011;10088;47.946;2.532;2024-03-07T10:19:29;6.17;;;3.57;;
19854;SDS011;10088;47.946;2.532;2024-03-07T10:21:55;4.23;;;3.43;;
19854;SDS011;10088;47.946;2.532;2024-03-07T10:24:24;6.27;;;3.57;;
19854;SDS011;10088;47.946;2.532;2024-03-07T10:26:50;4.73;;;3.53;;
19854;SDS011;10088;47.946;2.532;2024-03-07T10:29:16;8.43;;;3.90;;
19854;SDS011;10088;47.946;2.532;2024-03-07T10:31:42;4.80;;;3.60;;
19854;SDS011;10088;47.946;2.532;2024-03-07T10:34:09;6.80;;;3.83;;
19854;SDS011;10088;47.946;2.532;2024-03-07T10:36:34;5.03;;;3.67;;
19854;SDS011;10088;47.946;2.532;2024-03-07T10:39:00;4.97;;;4.27;;
19854;SDS011;10088;47.946;2.532;2024-03-07T10:41:28;6.80;;;4.47;;
19854;SDS011;10088;47.946;2.532;2024-03-07T10:43:56;7.87;;;3.90;;
19854;SDS011;10088;47.946;2.532;2024-03-07T10:46:23;5.90;;;4.30;;
19854;SDS011;10088;47.946;2.532;2024-03-07T10:48:50;6.23;;;4.53;;
19854;SDS011;10088;47.946;2.532;2024-03-07T10:51:21;5.60;;;4.20;;
19854;SDS011;10088;47.946;2.532;2024-03-07T10:53:58;6.10;;;4.53;;
19854;SDS011;10088;47.946;2.532;2024-03-07T11:01:32;8.13;;;4.90;;
19854;SDS011;10088;47.946;2.532;2024-03-07T11:03:59;7.40;;;4.80;;
19854;SDS011;10088;47.946;2.532;2024-03-07T11:06:25;4.87;;;4.10;;
19854;SDS011;10088;47.946;2.532;2024-03-07T11:08:50;7.07;;;4.80;;
19854;SDS011;10088;47.946;2.532;2024-03-07T11:11:17;3.20;;;2.77;;
19854;SDS011;10088;47.946;2.532;2024-03-07T11:13:42;5.40;;;4.00;;
19854;SDS011;10088;47.946;2.532;2024-03-07T11:16:09;4.80;;;3.60;;
19854;SDS011;10088;47.946;2.532;2024-03-07T11:18:35;4.93;;;3.97;;
19854;SDS011;10088;47.946;2.532;2024-03-07T11:21:00;5.97;;;4.47;;
19854;SDS011;10088;47.946;2.532;2024-03-07T11:25:54;5.50;;;4.00;;
19854;SDS011;10088;47.946;2.532;2024-03-07T11:28:27;4.97;;;3.47;;
19854;SDS011;10088;47.946;2.532;2024-03-07T11:30:53;4.27;;;3.37;;
19854;SDS011;10088;47.946;2.532;2024-03-07T11:33:18;4.80;;;3.80;;
19854;SDS011;10088;47.946;2.532;2024-03-07T11:35:48;6.13;;;3.50;;
19854;SDS011;10088;47.946;2.532;2024-03-07T11:38:14;5.10;;;3.47;;
19854;SDS011;10088;47.946;2.532;2024-03-07T11:43:05;4.83;;;3.47;;
19854;SDS011;10088;47.946;2.532;2024-03-07T11:45:31;4.60;;;3.30;;
19854;SDS011;10088;47.946;2.532;2024-03-07T11:48:03;6.20;;;3.73;;
19854;SDS011;10088;47.946;2.532;2024-03-07T11:50:41;6.23;;;3.47;;
19854;SDS011;10088;47.946;2.532;2024-03-07T11:53:07;4.50;;;3.27;;
19854;SDS011;10088;47.946;2.532;2024-03-07T11:55:33;4.30;;;3.50;;
19854;SDS011;10088;47.946;2.532;2024-03-07T11:58:14;5.70;;;3.33;;
19854;SDS011;10088;47.946;2.532;2024-03-07T12:00:42;4.00;;;3.23;;
19854;SDS011;10088;47.946;2.532;2024-03-07T12:03:10;3.73;;;3.03;;
19854;SDS011;10088;47.946;2.532;2024-03-07T12:05:38;4.53;;;3.13;;
19854;SDS011;10088;47.946;2.532;2024-03-07T12:08:04;5.10;;;3.43;;
19854;SDS011;10088;47.946;2.532;2024-03-07T12:10:30;6.27;;;3.40;;
19854;SDS011;10088;47.946;2.532;2024-03-07T12:12:56;4.00;;;3.17;;
19854;SDS011;10088;47.946;2.532;2024-03-07T12:15:21;3.80;;;3.00;;
19854;SDS011;10088;47.946;2.532;2024-03-07T12:17:48;5.23;;;3.17;;
19854;SDS011;10088;47.946;2.532;2024-03-07T12:20:14;5.00;;;3.03;;
19854;SDS011;10088;47.946;2.532;2024-03-07T12:23:05;4.90;;;3.30;;
19854;SDS011;10088;47.946;2.532;2024-03-07T12:25:33;4.13;;;2.97;;
19854;SDS011;10088;47.946;2.532;2024-03-07T12:28:09;4.07;;;2.77;;
19854;SDS011;10088;47.946;2.532;2024-03-07T12:33:14;4.97;;;3.23;;
19854;SDS011;10088;47.946;2.532;2024-03-07T12:35:41;6.20;;;3.10;;
19854;SDS011;10088;47.946;2.532;2024-03-07T12:38:08;5.37;;;2.93;;
19854;SDS011;10088;47.946;2.532;2024-03-07T12:40:33;3.67;;;2.77;;
19854;SDS011;10088;47.946;2.532;2024-03-07T12:42:59;4.77;;;2.73;;
19854;SDS011;10088;47.946;2.532;2024-03-07T12:45:27;4.60;;;3.30;;
19854;SDS011;10088;47.946;2.532;2024-03-07T12:47:53;6.67;;;3.57;;
19854;SDS011;10088;47.946;2.532;2024-03-07T12:50:20;3.33;;;2.60;;
19854;SDS011;10088;47.946;2.532;2024-03-07T12:52:48;4.50;;;3.47;;
19854;SDS011;10088;47.946;2.532;2024-03-07T12:55:17;5.33;;;3.37;;
19854;SDS011;10088;47.946;2.532;2024-03-07T12:57:52;5.23;;;3.57;;
19854;SDS011;10088;47.946;2.532;2024-03-07T13:00:19;3.50;;;2.90;;
19854;SDS011;10088;47.946;2.532;2024-03-07T13:02:46;5.87;;;3.80;;
19854;SDS011;10088;47.946;2.532;2024-03-07T13:05:11;4.70;;;3.50;;
19854;SDS011;10088;47.946;2.532;2024-03-07T13:07:54;5.13;;;3.67;;
19854;SDS011;10088;47.946;2.532;2024-03-07T13:10:20;4.47;;;3.50;;
19854;SDS011;10088;47.946;2.532;2024-03-07T13:12:46;4.47;;;4.07;;
19854;SDS011;10088;47.946;2.532;2024-03-07T13:15:17;4.60;;;3.93;;
19854;SDS011;10088;47.946;2.532;2024-03-07T13:17:42;6.37;;;3.93;;
19854;SDS011;10088;47.946;2.532;2024-03-07T13:20:08;5.10;;;3.73;;
19854;SDS011;10088;47.946;2.532;2024-03-07T13:22:42;5.50;;;4.27;;
19854;SDS011;10088;47.946;2.532;2024-03-07T13:25:12;5.63;;;4.40;;
19854;SDS011;10088;47.946;2.532;2024-03-07T13:27:43;5.50;;;3.77;;
19854;SDS011;10088;47.946;2.532;2024-03-07T13:30:09;5.13;;;4.07;;
19854;SDS011;10088;47.946;2.532;2024-03-07T13:32:38;5.97;;;4.50;;
19854;SDS011;10088;47.946;2.532;2024-03-07T13:35:03;5.70;;;4.37;;
19854;SDS011;10088;47.946;2.532;2024-03-07T13:37:29;6.23;;;3.50;;
19854;SDS011;10088;47.946;2.532;2024-03-07T13:39:58;5.23;;;4.13;;
19854;SDS011;10088;47.946;2.532;2024-03-07T13:42:24;4.90;;;3.70;;
19854;SDS011;10088;47.946;2.532;2024-03-07T13:44:49;4.97;;;4.40;;
19854;SDS011;10088;47.946;2.532;2024-03-07T13:47:15;4.53;;;3.73;;
19854;SDS011;10088;47.946;2.532;2024-03-07T13:49:41;4.83;;;4.07;;
19854;SDS011;10088;47.946;2.532;2024-03-07T13:52:07;4.70;;;3.43;;
19854;SDS011;10088;47.946;2.532;2024-03-07T13:54:44;5.17;;;4.17;;
19854;SDS011;10088;47.946;2.532;2024-03-07T14:06:07;7.73;;;4.00;;
19854;SDS011;10088;47.946;2.532;2024-03-07T14:13:31;5.63;;;4.23;;
19854;SDS011;10088;47.946;2.532;2024-03-07T14:16:12;6.20;;;4.10;;
19854;SDS011;10088;47.946;2.532;2024-03-07T14:19:01;6.43;;;5.07;;
19854;SDS011;10088;47.946;2.532;2024-03-07T14:32:29;6.40;;;4.90;;
19854;SDS011;10088;47.946;2.532;2024-03-07T14:37:25;6.03;;;4.60;;
19854;SDS011;10088;47.946;2.532;2024-03-07T14:39:53;6.03;;;4.40;;
19854;SDS011;10088;47.946;2.532;2024-03-07T14:42:20;5.17;;;3.67;;
19854;SDS011;10088;47.946;2.532;2024-03-07T14:44:45;5.53;;;4.30;;
19854;SDS011;10088;47.946;2.532;2024-03-07T14:47:13;4.90;;;3.77;;
19854;SDS011;10088;47.946;2.532;2024-03-07T14:49:39;5.87;;;4.10;;
19854;SDS011;10088;47.946;2.532;2024-03-07T14:52:05;6.23;;;3.87;;
19854;SDS011;10088;47.946;2.532;2024-03-07T14:54:36;4.90;;;3.60;;
19854;SDS011;10088;47.946;2.532;2024-03-07T14:57:01;5.23;;;3.30;;
19854;SDS011;10088;47.946;2.532;2024-03-07T14:59:29;6.50;;;3.97;;
19854;SDS011;10088;47.946;2.532;2024-03-07T15:01:54;5.00;;;3.70;;
19854;SDS011;10088;47.946;2.532;2024-03-07T15:04:20;5.37;;;3.83;;
19854;SDS011;10088;47.946;2.532;2024-03-07T15:06:46;6.40;;;3.43;;
19854;SDS011;10088;47.946;2.532;2024-03-07T15:09:11;4.80;;;3.57;;
19854;SDS011;10088;47.946;2.532;2024-03-07T15:11:38;4.63;;;3.47;;
19854;SDS011;10088;47.946;2.532;2024-03-07T15:14:05;5.47;;;3.63;;
19854;SDS011;10088;47.946;2.532;2024-03-07T15:16:33;4.73;;;3.47;;